Main page
METAR-TAF:

METAR-TAF

Airports :

Palma de Mallorca, Spain

Palma de Mallorca Airport

latitude: 39-33N, longitude: 002-44E, elevation: 4 m

Current weather observation

The report was made 16 minutes ago, at 07:00 UTC
Wind 5 kt from the East/Northeast
Temperature 17°C
Humidity 72%
Pressure 1018 hPa
Visibility 10 km or more
no clouds below 1500 m and no cumulonimbus

METAR: LEPA 230700Z 06005KT CAVOK 17/12 Q1018 NOSIG

Time: 09:16 (07:16 UTC)

Forecast

The report was made 2 hours and 16 minutes ago, at 05:00 UTC
Forecast valid from 23 at 06 UTC to 24 at 06 UTC
Wind 4 kt from the Northeast
Visibility 10 km or more
Few clouds at a height of 2500 ft
Becoming
from 23 at 08 UTC to 23 at 10 UTC
Wind 10 kt from the East
Probability 30% :
Temporary
from 23 at 12 UTC to 23 at 16 UTC
Wind 10 kt from the Southwest
Becoming
from 23 at 18 UTC to 23 at 20 UTC
Wind 7 kt from the Northeast

TAF: LEPA 230500Z 2306/2406 05004KT 9999 FEW025 TX26/2312Z TN12/2406Z BECMG 2308/2310 09010KT PROB30 TEMPO 2312/2316 22010KT BECMG 2318/2320 05007KT

Weather observations and forecasts of more than 4000 airports (METAR and TAF reports).

The available stations are represented by yellow and red dots on the map.

Hover mouse over dot to see the name of the station.

Then click to see weather observations and forecasts.

To change the map : click on the green buttons with a black cross to zoom in, on the green button with a dash to zoom out, or on the green arrows for adjacent maps.


METAR-TAF: